Time;durP1;ratioP1;P1;durP2;ratioP2;P2;SDS_P1;SDS_P2;PMS_P1;PMS_P2;Temp;Humidity;BMP_temperature;BMP_pressure;BME280_temperature;BME280_humidity;BME280_pressure;Samples;Min_cycle;Max_cycle;Signal;HPM_P1;HPM_P2
2023/10/20 00:00:59;;;;;;;0.30;0.30;;;13.60;99.90;;;;;;4933995;29;20270;-60
2023/10/20 00:03:26;;;;;;;0.30;0.30;;;13.60;99.90;;;;;;4949293;29;20214;-61
2023/10/20 00:05:53;;;;;;;0.30;0.30;;;13.60;99.90;;;;;;4928093;29;20218;-60
2023/10/20 00:08:20;;;;;;;0.20;0.20;;;13.60;99.90;;;;;;4944670;29;20188;-60
2023/10/20 00:10:48;;;;;;;0.30;0.30;;;13.60;99.90;;;;;;4948399;28;20597;-60
2023/10/20 00:13:15;;;;;;;0.38;0.38;;;13.60;92.20;;;;;;4947341;29;20226;-61
2023/10/20 00:15:44;;;;;;;0.30;0.30;;;13.60;86.30;;;;;;4949249;29;20203;-62
2023/10/20 00:18:12;;;;;;;0.30;0.30;;;13.60;19.20;;;;;;4948394;29;20273;-63
2023/10/20 00:20:39;;;;;;;1.00;1.00;;;13.60;16.60;;;;;;4945191;28;20618;-63
2023/10/20 00:23:06;;;;;;;0.30;0.30;;;13.60;13.60;;;;;;4950004;29;20282;-62
2023/10/20 00:25:33;;;;;;;0.20;0.20;;;13.60;46.60;;;;;;4948610;29;20211;-63
2023/10/20 00:28:00;;;;;;;0.30;0.30;;;13.60;49.20;;;;;;4941417;29;20198;-64
2023/10/20 00:30:27;;;;;;;0.20;0.20;;;13.60;46.60;;;;;;4949111;29;20241;-63
2023/10/20 00:32:54;;;;;;;0.30;0.30;;;13.60;51.10;;;;;;4947588;29;20671;-63
2023/10/20 00:35:21;;;;;;;0.30;0.30;;;13.60;73.80;;;;;;4947914;29;20222;-68
2023/10/20 00:37:48;;;;;;;0.30;0.30;;;13.60;79.40;;;;;;4947576;29;20217;-62
2023/10/20 00:40:15;;;;;;;0.30;0.30;;;13.60;75.20;;;;;;4931467;29;20262;-62
2023/10/20 00:42:42;;;;;;;0.30;0.30;;;13.60;89.60;;;;;;4945600;29;20337;-63
2023/10/20 00:45:10;;;;;;;0.20;0.20;;;13.60;73.00;;;;;;4946779;28;20242;-62
2023/10/20 00:47:39;;;;;;;0.20;0.20;;;13.60;51.50;;;;;;4946226;29;20195;-62
2023/10/20 00:50:11;;;;;;;0.30;0.30;;;13.60;42.50;;;;;;4931655;29;20199;-64
2023/10/20 00:52:49;;;;;;;0.30;0.30;;;13.70;31.00;;;;;;4945287;29;20684;-64
2023/10/20 00:55:18;;;;;;;0.30;0.30;;;13.60;26.80;;;;;;4940953;29;20199;-64
2023/10/20 00:57:46;;;;;;;0.30;0.30;;;13.70;18.50;;;;;;4946424;29;20615;-64
2023/10/20 01:00:14;;;;;;;0.20;0.20;;;13.70;10.20;;;;;;4930981;28;20913;-63
2023/10/20 01:02:41;;;;;;;0.22;0.22;;;13.70;1.00;;;;;;4951639;28;20258;-64
2023/10/20 01:05:09;;;;;;;0.30;0.30;;;13.70;1.00;;;;;;4951813;28;20692;-65
2023/10/20 01:07:37;;;;;;;0.20;0.20;;;13.70;1.00;;;;;;4952268;29;20215;-65
2023/10/20 01:10:05;;;;;;;0.20;0.20;;;13.80;1.00;;;;;;4949456;29;20187;-64
2023/10/20 01:12:33;;;;;;;0.20;0.20;;;13.80;1.00;;;;;;4948465;29;20674;-63
2023/10/20 01:15:00;;;;;;;0.20;0.20;;;13.80;1.00;;;;;;4952017;29;20222;-64
2023/10/20 01:17:28;;;;;;;0.20;0.20;;;13.80;1.00;;;;;;4950615;28;20293;-64
2023/10/20 01:19:55;;;;;;;0.30;0.30;;;13.80;1.00;;;;;;4946467;29;20199;-64
2023/10/20 01:22:23;;;;;;;0.30;0.30;;;13.80;1.00;;;;;;4951823;29;20191;-63
2023/10/20 01:24:50;;;;;;;0.30;0.30;;;13.90;1.00;;;;;;4949912;29;20302;-64
2023/10/20 01:27:19;;;;;;;0.30;0.30;;;13.90;1.00;;;;;;4933540;29;20198;-63
2023/10/20 01:29:46;;;;;;;0.30;0.30;;;13.80;1.00;;;;;;4933540;29;20250;-63
2023/10/20 01:32:13;;;;;;;0.20;0.20;;;13.80;1.00;;;;;;4950949;29;20610;-63
2023/10/20 01:34:40;;;;;;;0.20;0.20;;;13.80;1.00;;;;;;4951701;28;20207;-63
2023/10/20 01:37:11;;;;;;;0.20;0.20;;;13.80;1.00;;;;;;4949616;28;20277;-63
2023/10/20 01:39:38;;;;;;;0.30;0.30;;;13.80;1.00;;;;;;4950787;29;20199;-63
2023/10/20 01:42:07;;;;;;;0.30;0.30;;;13.80;1.00;;;;;;4954809;28;20199;-64
2023/10/20 01:44:36;;;;;;;0.23;0.23;;;13.80;1.00;;;;;;4946455;29;20584;-64
2023/10/20 01:47:04;;;;;;;0.20;0.20;;;13.80;1.00;;;;;;4948141;29;20195;-60
2023/10/20 01:49:35;;;;;;;0.30;0.30;;;13.90;1.00;;;;;;4953755;29;20748;-61
2023/10/20 01:52:03;;;;;;;0.55;0.55;;;13.90;1.00;;;;;;4934876;29;20210;-61
2023/10/20 01:54:30;;;;;;;0.30;0.30;;;13.90;1.00;;;;;;4951536;29;20616;-61
2023/10/20 01:56:58;;;;;;;0.30;0.30;;;13.90;1.00;;;;;;4947138;29;20593;-61
2023/10/20 01:59:25;;;;;;;0.20;0.20;;;13.90;1.00;;;;;;4950235;29;20263;-61
2023/10/20 02:05:52;;;;;;;0.20;0.20;;;13.90;1.00;;;;;;4952016;29;20576;-60
2023/10/20 02:08:19;;;;;;;0.20;0.20;;;13.90;1.00;;;;;;4951650;29;20257;-60
2023/10/20 02:10:46;;;;;;;0.20;0.20;;;13.90;1.00;;;;;;4938752;29;20199;-62
2023/10/20 02:13:14;;;;;;;0.30;0.30;;;14.00;1.00;;;;;;4949929;28;20719;-62
2023/10/20 02:15:48;;;;;;;0.40;0.40;;;13.90;1.00;;;;;;4946309;29;20187;-62
2023/10/20 02:18:15;;;;;;;0.80;0.80;;;13.90;1.00;;;;;;4949234;29;20198;-62
2023/10/20 02:20:43;;;;;;;0.30;0.30;;;13.90;1.00;;;;;;4949659;28;20203;-63
2023/10/20 02:23:11;;;;;;;0.22;0.22;;;13.90;1.00;;;;;;4950276;28;20195;-60
2023/10/20 02:25:38;;;;;;;0.30;0.30;;;14.00;1.00;;;;;;4951686;28;20679;-60
2023/10/20 02:28:05;;;;;;;0.30;0.30;;;14.00;1.00;;;;;;4948506;29;20274;-62
2023/10/20 02:30:32;;;;;;;0.30;0.30;;;14.10;1.00;;;;;;4949098;29;20234;-62
2023/10/20 02:33:02;;;;;;;0.30;0.30;;;14.00;1.00;;;;;;4948738;29;20612;-65
2023/10/20 02:35:29;;;;;;;0.20;0.20;;;14.10;1.00;;;;;;4951422;29;20609;-61
2023/10/20 02:37:55;;;;;;;0.30;0.30;;;14.10;1.00;;;;;;4949619;28;20207;-61
2023/10/20 02:40:22;;;;;;;0.30;0.30;;;14.00;99.90;;;;;;4931798;29;20790;-62
2023/10/20 02:42:49;;;;;;;0.20;0.20;;;14.00;99.90;;;;;;4950124;28;20238;-62
2023/10/20 02:45:16;;;;;;;0.30;0.30;;;14.00;99.90;;;;;;4948898;28;20219;-61
2023/10/20 02:47:43;;;;;;;0.30;0.30;;;14.10;99.90;;;;;;4949670;28;20199;-61
2023/10/20 02:50:11;;;;;;;0.30;0.30;;;14.00;99.90;;;;;;4932985;29;20344;-61
2023/10/20 02:52:38;;;;;;;0.30;0.30;;;14.00;99.90;;;;;;4948763;29;20214;-62
2023/10/20 02:55:05;;;;;;;0.20;0.20;;;14.10;99.90;;;;;;4931368;29;20571;-61
2023/10/20 02:57:32;;;;;;;0.10;0.10;;;14.10;99.90;;;;;;4948607;29;20261;-61
2023/10/20 02:59:59;;;;;;;0.30;0.30;;;14.10;99.90;;;;;;4953018;28;20220;-61
2023/10/20 03:02:26;;;;;;;0.30;0.30;;;14.00;99.90;;;;;;4952290;28;20250;-61
2023/10/20 03:04:54;;;;;;;0.20;0.20;;;14.10;99.90;;;;;;4947470;28;20274;-61
2023/10/20 03:07:27;;;;;;;0.20;0.20;;;14.10;99.90;;;;;;4947187;29;20206;-61
2023/10/20 03:09:55;;;;;;;0.30;0.30;;;14.10;99.90;;;;;;4949548;29;20695;-64
2023/10/20 03:12:22;;;;;;;0.60;0.60;;;14.10;99.90;;;;;;4948457;28;20737;-61
2023/10/20 03:14:49;;;;;;;0.77;0.77;;;14.10;99.90;;;;;;4944819;29;20200;-61
2023/10/20 03:17:16;;;;;;;0.30;0.30;;;14.10;99.90;;;;;;4949323;28;20226;-61
2023/10/20 03:19:44;;;;;;;0.30;0.30;;;14.00;99.90;;;;;;4947168;28;20195;-60
2023/10/20 03:22:12;;;;;;;0.30;0.30;;;14.00;99.90;;;;;;4932033;29;20207;-60
2023/10/20 03:24:42;;;;;;;0.20;0.20;;;14.00;99.90;;;;;;4946392;28;20214;-60
2023/10/20 03:27:09;;;;;;;0.30;0.30;;;14.00;99.90;;;;;;4948112;28;20558;-60
2023/10/20 03:29:36;;;;;;;0.35;0.35;;;14.00;99.90;;;;;;4931043;29;20249;-60
2023/10/20 03:32:03;;;;;;;0.30;0.30;;;14.00;99.90;;;;;;4928508;29;20206;-59
2023/10/20 03:34:33;;;;;;;0.30;0.30;;;14.00;99.90;;;;;;4936671;29;20855;-61
2023/10/20 03:37:03;;;;;;;0.80;0.80;;;14.00;99.90;;;;;;4950436;29;20664;-61
2023/10/20 03:39:33;;;;;;;0.30;0.30;;;13.90;99.90;;;;;;4947091;29;20282;-61
2023/10/20 03:42:02;;;;;;;0.30;0.30;;;13.90;99.90;;;;;;4949746;29;20694;-61
2023/10/20 03:44:29;;;;;;;0.30;0.30;;;13.90;99.90;;;;;;4950322;29;20195;-60
2023/10/20 03:46:57;;;;;;;0.30;0.30;;;13.90;99.90;;;;;;4948805;29;20221;-59
2023/10/20 03:49:24;;;;;;;0.30;0.30;;;13.80;99.90;;;;;;4949653;29;20191;-60
2023/10/20 03:51:51;;;;;;;0.30;0.30;;;13.80;99.90;;;;;;4947518;28;22764;-59
2023/10/20 03:54:19;;;;;;;0.40;0.40;;;13.80;1.00;;;;;;4948095;28;20191;-59
2023/10/20 03:56:46;;;;;;;0.20;0.20;;;13.80;1.00;;;;;;4949214;29;20193;-60
2023/10/20 03:59:14;;;;;;;0.20;0.20;;;13.70;1.00;;;;;;4950321;28;20944;-59
2023/10/20 04:01:42;;;;;;;4.10;3.80;;;13.70;1.00;;;;;;4949055;29;20195;-59
2023/10/20 04:04:11;;;;;;;0.33;0.33;;;13.70;1.00;;;;;;4954534;28;20187;-60
2023/10/20 04:06:39;;;;;;;0.20;0.20;;;13.70;1.00;;;;;;4949594;29;20773;-59
2023/10/20 04:09:09;;;;;;;0.30;0.30;;;13.70;1.00;;;;;;4948723;28;20265;-59
2023/10/20 04:11:37;;;;;;;0.30;0.30;;;13.70;1.00;;;;;;4947918;29;20294;-59
2023/10/20 04:14:06;;;;;;;0.20;0.20;;;13.70;1.00;;;;;;4948421;29;20214;-60
2023/10/20 04:16:41;;;;;;;0.30;0.30;;;13.70;1.00;;;;;;4949172;29;20234;-59
2023/10/20 04:19:14;;;;;;;0.23;0.23;;;13.70;1.00;;;;;;4950255;29;20268;-59
2023/10/20 04:21:45;;;;;;;0.20;0.20;;;13.60;1.00;;;;;;4947073;28;20202;-59
2023/10/20 04:24:12;;;;;;;0.20;0.20;;;13.60;1.00;;;;;;4949028;29;20606;-59
2023/10/20 04:26:44;;;;;;;0.87;0.87;;;13.60;1.00;;;;;;4953838;28;20294;-62
2023/10/20 04:42:55;;;;;;;0.30;0.30;;;13.50;99.90;;;;;;4952704;29;20260;-61
2023/10/20 04:58:58;;;;;;;0.30;0.30;;;13.50;99.90;;;;;;4950225;28;20221;-60
2023/10/20 05:02:03;;;;;;;0.30;0.30;;;13.50;99.90;;;;;;4953735;28;20597;-59
2023/10/20 05:04:28;;;;;;;0.30;0.30;;;13.50;99.90;;;;;;4950525;28;20217;-59
2023/10/20 05:06:58;;;;;;;0.30;0.30;;;13.40;99.90;;;;;;4957496;28;20218;-60
2023/10/20 05:09:26;;;;;;;0.30;0.30;;;13.40;99.90;;;;;;4959832;28;20191;-59
2023/10/20 05:11:53;;;;;;;0.30;0.30;;;13.40;99.90;;;;;;4955043;28;20199;-60
2023/10/20 05:14:21;;;;;;;0.30;0.30;;;13.40;99.90;;;;;;4958512;28;20214;-61
2023/10/20 05:16:48;;;;;;;0.20;0.20;;;13.40;99.90;;;;;;4956376;28;20729;-59
2023/10/20 05:19:15;;;;;;;0.60;0.60;;;13.40;76.00;;;;;;4955996;28;20273;-60
2023/10/20 05:21:43;;;;;;;0.30;0.30;;;13.40;70.30;;;;;;4954935;28;20187;-62
2023/10/20 05:24:10;;;;;;;0.30;0.30;;;13.40;95.00;;;;;;4958149;28;20191;-62
2023/10/20 05:26:37;;;;;;;0.30;0.30;;;13.40;46.20;;;;;;4953671;28;20239;-62
2023/10/20 05:29:04;;;;;;;0.20;0.20;;;13.40;1.00;;;;;;4952360;28;20552;-63
2023/10/20 05:31:31;;;;;;;0.30;0.30;;;13.40;1.00;;;;;;4955818;28;20205;-62
2023/10/20 05:33:58;;;;;;;0.30;0.30;;;13.40;1.00;;;;;;4961377;28;20914;-62
2023/10/20 05:36:25;;;;;;;0.20;0.20;;;13.40;1.00;;;;;;4959153;28;20280;-63
2023/10/20 05:38:52;;;;;;;0.23;0.23;;;13.40;1.00;;;;;;4955997;28;20217;-64
2023/10/20 05:41:19;;;;;;;0.20;0.20;;;13.40;1.00;;;;;;4955302;28;20195;-63
2023/10/20 05:43:46;;;;;;;0.20;0.20;;;13.40;1.00;;;;;;4954921;28;20222;-62
2023/10/20 05:46:17;;;;;;;0.60;0.60;;;13.40;1.00;;;;;;4959991;28;20710;-63
2023/10/20 05:48:45;;;;;;;0.30;0.30;;;13.30;1.00;;;;;;4956401;28;20194;-62
2023/10/20 05:51:13;;;;;;;0.30;0.30;;;13.30;1.00;;;;;;4950784;28;20286;-62
2023/10/20 05:53:40;;;;;;;0.30;0.30;;;13.30;1.00;;;;;;4935028;29;20206;-61
2023/10/20 05:56:07;;;;;;;0.23;0.23;;;13.30;1.00;;;;;;4951190;28;20195;-62
2023/10/20 05:58:37;;;;;;;0.20;0.20;;;13.30;1.00;;;;;;4952838;28;20210;-60
2023/10/20 06:01:06;;;;;;;0.30;0.30;;;13.30;1.00;;;;;;4948341;28;20209;-60
2023/10/20 06:03:33;;;;;;;0.30;0.30;;;13.30;1.00;;;;;;4950814;29;20203;-61
2023/10/20 06:06:01;;;;;;;0.30;0.30;;;13.30;1.00;;;;;;4955307;28;20235;-60
2023/10/20 06:08:29;;;;;;;0.30;0.30;;;13.30;1.00;;;;;;4959476;28;20207;-61
2023/10/20 06:11:00;;;;;;;0.30;0.30;;;13.30;99.90;;;;;;4952249;28;20674;-61
2023/10/20 06:13:27;;;;;;;0.30;0.30;;;13.30;99.90;;;;;;4953175;28;20684;-61
2023/10/20 06:15:54;;;;;;;7.67;4.87;;;13.30;99.90;;;;;;4945750;28;20291;-61
2023/10/20 06:18:21;;;;;;;10.37;5.73;;;13.30;99.90;;;;;;4948821;28;20862;-61
2023/10/20 06:21:03;;;;;;;8.30;5.17;;;13.30;99.90;;;;;;4942831;28;20195;-60
2023/10/20 06:23:31;;;;;;;5.23;4.27;;;13.20;99.90;;;;;;4934210;29;20226;-61
2023/10/20 06:25:59;;;;;;;6.37;5.07;;;13.30;99.90;;;;;;4945744;28;20195;-60
2023/10/20 06:28:26;;;;;;;9.47;5.10;;;13.30;99.90;;;;;;4945372;28;21084;-61
2023/10/20 06:30:57;;;;;;;9.30;5.13;;;13.20;99.90;;;;;;4938598;29;20204;-61
2023/10/20 06:33:28;;;;;;;11.00;6.83;;;13.20;99.90;;;;;;4927337;29;20227;-61
2023/10/20 06:36:00;;;;;;;8.50;5.40;;;13.20;99.90;;;;;;4944965;28;20290;-61
2023/10/20 06:38:30;;;;;;;10.40;6.30;;;13.20;99.90;;;;;;4929993;29;20196;-59
2023/10/20 06:40:58;;;;;;;10.23;5.90;;;13.20;99.90;;;;;;4930400;29;20282;-59
2023/10/20 06:43:25;;;;;;;10.83;6.07;;;13.20;99.90;;;;;;4929433;29;20223;-60
2023/10/20 06:45:57;;;;;;;8.60;5.50;;;13.10;99.90;;;;;;4931458;29;20231;-60
2023/10/20 06:48:24;;;;;;;9.17;5.33;;;13.10;99.90;;;;;;4928780;29;20692;-60
2023/10/20 06:50:51;;;;;;;9.13;6.23;;;13.10;99.90;;;;;;4931995;29;20650;-60
2023/10/20 06:53:18;;;;;;;7.90;6.20;;;13.10;99.90;;;;;;4931715;29;20200;-60
2023/10/20 06:55:49;;;;;;;11.27;6.30;;;13.00;99.90;;;;;;4946407;29;20591;-60
2023/10/20 06:58:36;;;;;;;8.83;5.43;;;13.00;99.90;;;;;;4943402;28;20211;-60
2023/10/20 07:01:06;;;;;;;8.67;5.23;;;13.00;99.90;;;;;;4949248;28;20199;-60
2023/10/20 07:03:34;;;;;;;11.83;6.53;;;12.90;99.90;;;;;;4928102;29;20188;-61
2023/10/20 07:06:06;;;;;;;7.77;5.30;;;12.90;99.90;;;;;;4932432;29;20664;-60
2023/10/20 07:08:34;;;;;;;7.20;5.00;;;12.80;1.00;;;;;;4928516;29;20199;-60
2023/10/20 07:11:04;;;;;;;7.30;4.60;;;12.80;1.00;;;;;;4949965;28;20253;-60
2023/10/20 07:13:32;;;;;;;9.07;5.37;;;12.70;1.00;;;;;;4930170;29;20195;-61
2023/10/20 07:16:00;;;;;;;6.83;4.90;;;12.70;1.00;;;;;;4945973;28;20243;-61
2023/10/20 07:18:27;;;;;;;6.10;4.80;;;12.60;1.00;;;;;;4933528;29;20208;-61
2023/10/20 07:20:55;;;;;;;7.10;4.67;;;12.60;1.00;;;;;;4931028;29;20564;-61
2023/10/20 07:23:24;;;;;;;5.03;3.53;;;12.60;1.00;;;;;;4929617;29;20218;-61
2023/10/20 07:25:52;;;;;;;6.80;4.10;;;12.50;1.00;;;;;;4945697;28;20228;-60
2023/10/20 07:28:21;;;;;;;6.40;4.20;;;12.50;1.00;;;;;;4946247;28;20442;-60
2023/10/20 07:30:49;;;;;;;6.23;4.50;;;12.40;1.00;;;;;;4929728;29;20204;-61
2023/10/20 07:33:16;;;;;;;4.57;3.83;;;12.40;1.00;;;;;;4930493;29;20603;-60
2023/10/20 07:35:43;;;;;;;5.70;4.53;;;12.40;1.00;;;;;;4943909;28;20529;-61
2023/10/20 07:38:12;;;;;;;6.57;4.97;;;12.30;1.00;;;;;;4931374;29;20434;-75
2023/10/20 07:40:40;;;;;;;7.70;5.20;;;12.20;1.00;;;;;;4930541;28;20203;-75
2023/10/20 07:43:07;;;;;;;6.10;4.30;;;12.20;6.90;;;;;;4946216;28;20646;-74
2023/10/20 07:45:40;;;;;;;5.13;3.97;;;12.10;60.70;;;;;;4946229;28;20278;-73
2023/10/20 07:48:08;;;;;;;5.43;4.27;;;12.10;99.90;;;;;;4927341;29;20224;-76
2023/10/20 07:50:36;;;;;;;6.50;4.30;;;12.00;95.70;;;;;;4945987;28;20282;-76
2023/10/20 07:53:03;;;;;;;5.60;3.60;;;12.00;99.90;;;;;;4931058;29;20220;-76
2023/10/20 07:55:30;;;;;;;6.73;4.10;;;11.90;99.90;;;;;;4928672;29;20759;-74
2023/10/20 07:57:57;;;;;;;5.93;4.60;;;11.90;99.90;;;;;;4945976;29;20215;-75
2023/10/20 08:00:24;;;;;;;9.00;4.63;;;11.90;99.90;;;;;;4931274;29;20196;-76
2023/10/20 08:02:51;;;;;;;7.27;4.47;;;11.90;99.90;;;;;;4928154;29;20203;-76
2023/10/20 08:05:24;;;;;;;6.27;4.37;;;11.90;99.90;;;;;;4929016;29;20195;-76
2023/10/20 08:07:53;;;;;;;5.87;3.87;;;11.80;1.00;;;;;;4931293;29;20521;-77
2023/10/20 08:10:21;;;;;;;5.23;4.10;;;11.80;99.90;;;;;;4929933;29;20188;-76
2023/10/20 08:12:49;;;;;;;6.43;4.47;;;11.80;99.90;;;;;;4929979;29;20291;-75
2023/10/20 08:15:16;;;;;;;5.70;4.37;;;11.70;99.90;;;;;;4944703;29;20259;-76
2023/10/20 08:17:48;;;;;;;5.67;4.03;;;11.70;1.00;;;;;;4945557;29;20242;-76
2023/10/20 08:20:16;;;;;;;5.00;4.33;;;11.70;1.00;;;;;;4941896;28;20200;-76
2023/10/20 08:22:43;;;;;;;5.00;3.93;;;11.70;99.90;;;;;;4926154;29;20199;-76
2023/10/20 08:25:11;;;;;;;5.30;4.23;;;11.70;99.90;;;;;;4927453;29;20207;-76
2023/10/20 08:27:38;;;;;;;5.30;3.60;;;11.70;99.90;;;;;;4930000;29;20303;-69
2023/10/20 08:30:06;;;;;;;5.73;4.70;;;11.70;1.00;;;;;;4929046;29;20203;-69
2023/10/20 08:32:33;;;;;;;4.53;4.03;;;11.70;1.00;;;;;;4944123;29;20218;-68
2023/10/20 08:35:00;;;;;;;5.40;4.30;;;11.60;99.90;;;;;;4928929;29;20195;-69
2023/10/20 08:37:28;;;;;;;5.27;3.70;;;11.60;99.90;;;;;;4928731;29;20199;-75
2023/10/20 08:39:55;;;;;;;7.23;4.53;;;11.60;99.90;;;;;;4930360;29;20205;-77
2023/10/20 08:42:22;;;;;;;6.60;4.70;;;11.60;99.90;;;;;;4932386;29;20219;-77
2023/10/20 08:44:50;;;;;;;9.37;5.33;;;11.60;99.90;;;;;;4931611;29;20219;-77
2023/10/20 08:47:17;;;;;;;6.03;4.47;;;11.60;1.00;;;;;;4926333;29;20215;-74
2023/10/20 08:49:46;;;;;;;7.20;4.80;;;11.60;99.90;;;;;;4924801;29;20211;-76
2023/10/20 08:52:13;;;;;;;5.77;4.20;;;11.60;99.90;;;;;;4925607;29;20222;-76
2023/10/20 08:54:41;;;;;;;5.40;3.83;;;11.70;99.90;;;;;;4929420;29;20231;-76
2023/10/20 08:57:08;;;;;;;9.47;3.93;;;11.70;80.50;;;;;;4933955;29;20667;-76
2023/10/20 08:59:37;;;;;;;6.57;4.07;;;11.70;99.90;;;;;;4930705;29;21649;-77
2023/10/20 09:02:08;;;;;;;6.20;4.03;;;11.70;99.90;;;;;;4930491;29;20191;-76
2023/10/20 09:04:35;;;;;;;5.47;4.17;;;11.60;99.90;;;;;;4944243;28;20210;-77
2023/10/20 09:07:14;;;;;;;5.37;4.37;;;11.70;99.90;;;;;;4927499;29;20729;-75
2023/10/20 09:09:41;;;;;;;6.40;4.40;;;11.60;99.90;;;;;;4927947;29;20223;-76
2023/10/20 09:12:08;;;;;;;5.07;3.70;;;11.60;99.90;;;;;;4942430;29;20231;-76
2023/10/20 09:14:42;;;;;;;5.90;4.17;;;11.60;99.90;;;;;;4928471;29;20727;-76
2023/10/20 09:17:21;;;;;;;5.97;4.13;;;11.50;99.90;;;;;;4941417;29;20326;-76
2023/10/20 09:19:48;;;;;;;6.07;4.10;;;11.60;99.90;;;;;;4948327;29;20242;-77
2023/10/20 09:22:25;;;;;;;5.63;4.70;;;11.50;99.90;;;;;;4949047;28;20874;-77
2023/10/20 09:24:55;;;;;;;8.20;4.30;;;11.60;99.90;;;;;;4950379;29;20233;-77
2023/10/20 09:27:22;;;;;;;6.10;3.93;;;11.60;99.90;;;;;;4953566;29;20298;-68
2023/10/20 09:29:51;;;;;;;6.90;4.43;;;11.60;1.00;;;;;;4952196;29;20195;-68
2023/10/20 09:32:18;;;;;;;5.23;3.70;;;11.60;1.00;;;;;;4952794;28;20197;-69
2023/10/20 09:34:45;;;;;;;7.57;4.03;;;11.60;1.00;;;;;;4953472;29;20187;-68
2023/10/20 09:37:15;;;;;;;4.93;3.60;;;11.60;99.90;;;;;;4952675;28;20694;-68
2023/10/20 09:39:46;;;;;;;4.93;3.80;;;11.50;99.90;;;;;;4935682;29;20260;-69
2023/10/20 09:42:23;;;;;;;4.10;3.57;;;11.50;1.00;;;;;;4953107;29;20660;-69
2023/10/20 09:45:04;;;;;;;4.73;3.57;;;11.50;1.00;;;;;;4951296;29;20705;-70
2023/10/20 09:47:36;;;;;;;4.57;3.47;;;11.50;1.00;;;;;;4953739;28;20679;-69
2023/10/20 09:50:05;;;;;;;4.40;3.33;;;11.40;1.00;;;;;;4949103;28;20195;-70
2023/10/20 09:52:33;;;;;;;0.30;0.30;;;11.40;1.00;;;;;;4952235;29;20261;-71
2023/10/20 09:55:01;;;;;;;0.30;0.30;;;11.30;1.00;;;;;;4947606;28;20208;-75
2023/10/20 09:57:28;;;;;;;0.30;0.30;;;11.20;1.00;;;;;;4935833;29;20208;-75
2023/10/20 09:59:55;;;;;;;0.20;0.20;;;11.20;1.00;;;;;;4952330;29;20262;-69
2023/10/20 10:02:31;;;;;;;0.30;0.30;;;11.20;1.00;;;;;;4949075;28;20784;-69
2023/10/20 10:04:58;;;;;;;0.30;0.30;;;11.30;99.90;;;;;;4953528;28;20208;-67
2023/10/20 10:07:34;;;;;;;0.20;0.20;;;11.30;99.90;;;;;;4951040;28;20215;-68
2023/10/20 10:10:02;;;;;;;0.27;0.27;;;11.30;99.90;;;;;;4949256;29;20227;-68
2023/10/20 10:12:33;;;;;;;0.30;0.30;;;11.20;99.90;;;;;;4952254;29;20189;-69
2023/10/20 10:15:12;;;;;;;0.20;0.20;;;11.20;99.90;;;;;;4950702;29;20273;-68
2023/10/20 10:17:46;;;;;;;0.40;0.40;;;11.20;1.00;;;;;;4952126;29;20564;-68
2023/10/20 10:20:24;;;;;;;0.30;0.30;;;11.20;1.00;;;;;;4951973;29;20202;-68
2023/10/20 10:23:04;;;;;;;0.30;0.30;;;11.20;1.00;;;;;;4950866;28;20204;-69
2023/10/20 10:25:37;;;;;;;0.30;0.30;;;11.20;1.00;;;;;;4949595;29;20209;-69
2023/10/20 10:28:13;;;;;;;0.30;0.30;;;11.20;1.00;;;;;;4951136;29;20713;-69
2023/10/20 10:30:42;;;;;;;0.30;0.30;;;11.20;1.00;;;;;;4930484;29;20199;-68
2023/10/20 10:33:11;;;;;;;0.30;0.30;;;11.20;99.90;;;;;;4950413;28;20659;-68
2023/10/20 10:35:39;;;;;;;0.30;0.30;;;11.30;99.90;;;;;;4950509;29;20564;-68
2023/10/20 10:38:28;;;;;;;0.20;0.20;;;11.20;1.00;;;;;;4949482;29;20195;-73
2023/10/20 10:40:57;;;;;;;0.13;0.13;;;11.20;71.00;;;;;;4950083;28;20213;-72
2023/10/20 10:43:24;;;;;;;0.30;0.30;;;11.30;99.90;;;;;;4952784;29;20227;-74
2023/10/20 10:45:52;;;;;;;0.30;0.30;;;11.20;99.90;;;;;;4938018;29;20567;-74
2023/10/20 10:48:27;;;;;;;0.30;0.30;;;11.30;99.90;;;;;;4951767;29;20290;-69
2023/10/20 10:50:55;;;;;;;0.30;0.30;;;11.30;99.90;;;;;;4950356;29;20257;-68
2023/10/20 10:53:22;;;;;;;0.30;0.30;;;11.20;99.90;;;;;;4949772;29;20668;-68
2023/10/20 10:55:49;;;;;;;0.20;0.20;;;11.20;99.90;;;;;;4952670;28;20612;-69
2023/10/20 10:58:16;;;;;;;0.30;0.30;;;11.20;99.90;;;;;;4951462;29;20203;-68
2023/10/20 11:00:44;;;;;;;0.20;0.20;;;11.30;99.90;;;;;;4947545;29;20291;-68
2023/10/20 11:03:13;;;;;;;0.20;0.20;;;11.30;1.00;;;;;;4948967;29;20198;-67
2023/10/20 11:05:41;;;;;;;0.23;0.23;;;11.30;1.00;;;;;;4946193;29;20202;-68
2023/10/20 11:08:12;;;;;;;0.33;0.33;;;11.30;1.00;;;;;;4928790;29;20318;-68
2023/10/20 11:10:45;;;;;;;0.20;0.20;;;11.30;1.00;;;;;;4942221;29;20195;-67
2023/10/20 11:13:15;;;;;;;0.23;0.23;;;11.30;1.00;;;;;;4952021;28;20202;-68
2023/10/20 11:15:43;;;;;;;0.20;0.20;;;11.30;1.00;;;;;;4951044;29;20218;-67
2023/10/20 11:18:10;;;;;;;0.20;0.20;;;11.40;1.00;;;;;;4950805;29;20565;-67
2023/10/20 11:20:45;;;;;;;0.20;0.20;;;11.30;1.00;;;;;;4949378;29;20195;-68
2023/10/20 11:23:14;;;;;;;0.30;0.30;;;11.30;1.00;;;;;;4947900;29;20555;-68
2023/10/20 11:25:42;;;;;;;0.20;0.20;;;11.20;1.00;;;;;;4949066;29;20258;-68
2023/10/20 11:28:09;;;;;;;0.30;0.30;;;11.20;1.00;;;;;;4950744;29;20225;-68
2023/10/20 11:30:38;;;;;;;0.20;0.20;;;11.20;1.00;;;;;;4952763;28;20632;-69
2023/10/20 11:33:06;;;;;;;0.30;0.30;;;11.20;1.00;;;;;;4950601;29;20203;-68
2023/10/20 11:35:33;;;;;;;0.30;0.30;;;11.20;1.00;;;;;;4931926;28;20234;-68
2023/10/20 11:38:00;;;;;;;0.30;0.30;;;11.10;1.00;;;;;;4950908;29;20679;-68
2023/10/20 11:40:28;;;;;;;0.30;0.30;;;11.20;1.00;;;;;;4933071;29;20206;-68
2023/10/20 11:42:55;;;;;;;0.30;0.30;;;11.20;1.00;;;;;;4949194;29;20645;-68
2023/10/20 11:45:23;;;;;;;0.30;0.30;;;11.20;1.00;;;;;;4946879;28;20214;-69
2023/10/20 11:47:51;;;;;;;0.30;0.30;;;11.20;1.00;;;;;;4933337;29;20265;-74
2023/10/20 11:50:19;;;;;;;0.30;0.30;;;11.10;1.00;;;;;;4949773;29;20199;-75
2023/10/20 11:52:47;;;;;;;0.30;0.30;;;11.10;1.00;;;;;;4949849;29;20214;-73
2023/10/20 11:55:14;;;;;;;0.30;0.30;;;11.10;1.00;;;;;;4948235;29;20199;-75
2023/10/20 11:57:41;;;;;;;0.30;0.30;;;11.20;1.00;;;;;;4948941;28;20261;-68
2023/10/20 12:00:09;;;;;;;0.30;0.30;;;11.20;1.00;;;;;;4947518;29;20199;-68
2023/10/20 12:02:41;;;;;;;0.30;0.30;;;11.20;1.00;;;;;;4947257;29;20647;-68
2023/10/20 12:05:09;;;;;;;0.30;0.30;;;11.20;1.00;;;;;;4950173;28;20694;-70
2023/10/20 12:07:37;;;;;;;0.30;0.30;;;11.20;1.00;;;;;;4948316;28;20594;-68
2023/10/20 12:10:05;;;;;;;0.30;0.30;;;11.20;1.00;;;;;;4948867;29;20258;-67
2023/10/20 12:12:34;;;;;;;0.30;0.30;;;11.20;1.00;;;;;;4940732;28;20191;-68
2023/10/20 12:15:02;;;;;;;0.30;0.30;;;11.10;1.00;;;;;;4945391;29;20191;-67
2023/10/20 12:17:29;;;;;;;0.30;0.30;;;11.10;1.00;;;;;;4949882;29;20249;-67
2023/10/20 12:19:56;;;;;;;0.30;0.30;;;11.00;1.00;;;;;;4945125;29;20401;-67
2023/10/20 12:22:28;;;;;;;0.30;0.30;;;11.10;1.00;;;;;;4949222;28;20372;-67
2023/10/20 12:24:55;;;;;;;0.27;0.27;;;11.00;1.00;;;;;;4949535;29;20194;-67
2023/10/20 12:27:22;;;;;;;0.30;0.30;;;11.10;1.00;;;;;;4950008;29;20198;-67
2023/10/20 12:29:49;;;;;;;0.30;0.30;;;11.00;1.00;;;;;;4947343;29;20226;-68
2023/10/20 12:32:16;;;;;;;0.30;0.30;;;11.10;1.00;;;;;;4949346;29;20237;-67
2023/10/20 12:34:43;;;;;;;0.30;0.30;;;11.00;99.90;;;;;;4948910;29;20183;-67
2023/10/20 12:37:10;;;;;;;0.30;0.30;;;11.00;99.90;;;;;;4946641;28;20206;-67
2023/10/20 12:39:39;;;;;;;0.30;0.30;;;11.00;1.00;;;;;;4950360;28;20195;-66
2023/10/20 12:42:07;;;;;;;0.30;0.30;;;11.00;1.00;;;;;;4949439;29;20194;-67
2023/10/20 12:44:34;;;;;;;0.30;0.30;;;11.00;1.00;;;;;;4948095;29;20731;-66
2023/10/20 12:47:03;;;;;;;0.30;0.30;;;11.00;1.00;;;;;;4942947;28;20214;-68
2023/10/20 12:49:31;;;;;;;0.30;0.30;;;11.00;1.00;;;;;;4949203;28;20227;-67
2023/10/20 12:51:58;;;;;;;0.30;0.30;;;11.00;99.90;;;;;;4946397;28;20215;-67
2023/10/20 12:54:29;;;;;;;0.33;0.33;;;11.00;99.90;;;;;;4932261;28;20235;-67
2023/10/20 12:56:58;;;;;;;0.30;0.30;;;11.00;99.90;;;;;;4949041;28;20228;-67
2023/10/20 12:59:26;;;;;;;0.20;0.20;;;11.10;1.00;;;;;;4953295;29;21248;-67
2023/10/20 13:01:53;;;;;;;0.30;0.30;;;11.10;1.00;;;;;;4950376;29;20620;-67
2023/10/20 13:04:20;;;;;;;0.30;0.30;;;11.10;1.00;;;;;;4952628;29;20289;-66
2023/10/20 13:06:48;;;;;;;0.30;0.30;;;11.20;99.90;;;;;;4950999;28;20282;-67
2023/10/20 13:09:26;;;;;;;0.30;0.30;;;11.20;99.90;;;;;;4951196;29;20207;-67
2023/10/20 13:11:53;;;;;;;0.30;0.30;;;11.40;99.90;;;;;;4953271;28;20202;-67
2023/10/20 13:14:20;;;;;;;0.30;0.30;;;11.50;1.00;;;;;;4951631;29;20718;-67
2023/10/20 13:16:47;;;;;;;0.30;0.30;;;11.70;1.00;;;;;;4951975;29;20227;-67
2023/10/20 13:19:15;;;;;;;0.30;0.30;;;11.70;1.00;;;;;;4953467;29;20206;-67
2023/10/20 13:21:42;;;;;;;0.40;0.40;;;11.70;99.90;;;;;;4952179;29;20685;-67
2023/10/20 13:24:11;;;;;;;0.30;0.30;;;11.60;99.90;;;;;;4951057;28;20203;-75
2023/10/20 13:26:38;;;;;;;0.97;0.97;;;11.60;99.90;;;;;;4935715;29;20203;-74
2023/10/20 13:29:05;;;;;;;0.40;0.40;;;11.50;1.00;;;;;;4953744;28;20253;-75
2023/10/20 13:31:33;;;;;;;0.40;0.40;;;11.50;1.00;;;;;;4953134;29;20199;-68